Time;durP1;ratioP1;P1;durP2;ratioP2;P2;SDS_P1;SDS_P2;PMS_P1;PMS_P2;Temp;Humidity;BMP_temperature;BMP_pressure;BME280_temperature;BME280_humidity;BME280_pressure;Samples;Min_cycle;Max_cycle;Signal;HPM_P1;HPM_P2
2023/07/24 00:01:44;;;;;;;4.60;3.00;;;;;;;;;;4975945;28;20596;-76
2023/07/24 00:04:11;;;;;;;9.57;4.30;;;;;;;;;;4957901;28;20041;-77
2023/07/24 00:06:36;;;;;;;6.13;3.85;;;;;;;;;;4958048;28;20029;-75
2023/07/24 00:09:02;;;;;;;6.75;3.53;;;;;;;;;;4957506;28;20130;-75
2023/07/24 00:11:27;;;;;;;9.65;3.80;;;;;;;;;;4958218;28;20030;-76
2023/07/24 00:13:53;;;;;;;6.82;4.05;;;;;;;;;;4957606;28;20077;-77
2023/07/24 00:16:19;;;;;;;7.90;3.85;;;;;;;;;;4957672;28;20486;-75
2023/07/24 00:18:45;;;;;;;5.57;3.42;;;;;;;;;;4975050;28;20027;-75
2023/07/24 00:21:13;;;;;;;6.28;4.15;;;;;;;;;;4957388;28;20391;-76
2023/07/24 00:23:38;;;;;;;11.25;4.00;;;;;;;;;;4958924;28;20038;-75
2023/07/24 00:26:04;;;;;;;6.72;4.43;;;;;;;;;;4978315;28;20038;-74
2023/07/24 00:28:32;;;;;;;5.93;3.92;;;;;;;;;;4961907;28;20093;-77
2023/07/24 00:30:58;;;;;;;6.53;3.80;;;;;;;;;;4969529;28;20507;-76
2023/07/24 00:33:24;;;;;;;6.60;4.03;;;;;;;;;;4972146;28;20041;-75
2023/07/24 00:35:49;;;;;;;5.50;3.58;;;;;;;;;;4982557;28;20055;-75
2023/07/24 00:38:15;;;;;;;8.10;3.90;;;;;;;;;;4959076;28;20023;-76
2023/07/24 00:40:41;;;;;;;6.35;3.80;;;;;;;;;;4959512;28;20661;-74
2023/07/24 00:43:06;;;;;;;6.78;4.25;;;;;;;;;;4958538;28;20023;-75
2023/07/24 00:45:32;;;;;;;8.95;4.20;;;;;;;;;;4976045;28;20026;-74
2023/07/24 00:47:59;;;;;;;8.35;3.38;;;;;;;;;;4975901;28;20085;-75
2023/07/24 00:50:25;;;;;;;5.25;3.55;;;;;;;;;;4976283;28;20101;-76
2023/07/24 00:52:51;;;;;;;5.80;4.00;;;;;;;;;;4975949;28;20472;-74
2023/07/24 00:55:19;;;;;;;8.05;3.78;;;;;;;;;;4959577;28;20066;-75
2023/07/24 00:57:44;;;;;;;6.30;4.03;;;;;;;;;;4959276;28;20471;-74
2023/07/24 01:00:11;;;;;;;5.60;3.30;;;;;;;;;;4976438;28;20038;-77
2023/07/24 01:02:37;;;;;;;9.60;4.57;;;;;;;;;;4977104;28;20124;-74
2023/07/24 01:05:04;;;;;;;7.28;4.38;;;;;;;;;;4976171;28;20042;-76
2023/07/24 01:07:32;;;;;;;8.27;4.60;;;;;;;;;;4957854;28;20027;-73
2023/07/24 01:09:57;;;;;;;6.72;3.83;;;;;;;;;;4956358;28;20106;-76
2023/07/24 01:12:32;;;;;;;7.53;4.72;;;;;;;;;;4973754;28;20031;-75
2023/07/24 01:15:07;;;;;;;7.15;3.80;;;;;;;;;;4973625;28;20046;-75
2023/07/24 01:17:35;;;;;;;6.43;3.78;;;;;;;;;;4956214;28;20026;-76
2023/07/24 01:20:03;;;;;;;8.13;4.25;;;;;;;;;;4973367;28;20047;-74
2023/07/24 01:22:29;;;;;;;5.60;3.92;;;;;;;;;;4956319;28;20101;-75
2023/07/24 01:25:01;;;;;;;7.10;4.35;;;;;;;;;;4956291;28;20468;-75
2023/07/24 01:27:27;;;;;;;7.72;4.78;;;;;;;;;;4956671;28;20027;-75
2023/07/24 01:29:54;;;;;;;7.60;4.95;;;;;;;;;;4974288;28;20165;-75
2023/07/24 01:32:19;;;;;;;7.55;4.00;;;;;;;;;;4973760;28;20033;-74
2023/07/24 01:34:46;;;;;;;6.13;4.22;;;;;;;;;;4957222;28;20109;-77
2023/07/24 01:37:12;;;;;;;7.15;4.60;;;;;;;;;;4976747;28;20050;-77
2023/07/24 01:39:43;;;;;;;8.07;4.00;;;;;;;;;;4975556;28;20039;-76
2023/07/24 01:42:09;;;;;;;6.38;4.45;;;;;;;;;;4976356;28;20038;-75
2023/07/24 01:44:34;;;;;;;6.18;3.85;;;;;;;;;;4977631;28;20097;-76
2023/07/24 01:47:00;;;;;;;7.97;4.63;;;;;;;;;;4976534;28;20038;-77
2023/07/24 01:49:26;;;;;;;9.40;3.97;;;;;;;;;;4961489;28;20026;-78
2023/07/24 01:51:51;;;;;;;7.35;4.57;;;;;;;;;;4965365;28;20031;-77
2023/07/24 01:54:24;;;;;;;7.53;4.70;;;;;;;;;;5087330;28;20383;-78
2023/07/24 01:56:49;;;;;;;6.65;4.13;;;;;;;;;;5068597;28;20079;-76
2023/07/24 01:59:15;;;;;;;10.32;4.82;;;;;;;;;;5086648;28;20028;-78
2023/07/24 02:01:41;;;;;;;10.10;4.57;;;;;;;;;;5069501;28;20389;-79
2023/07/24 02:04:07;;;;;;;6.80;4.28;;;;;;;;;;5067976;28;20070;-78
2023/07/24 02:06:32;;;;;;;9.07;4.88;;;;;;;;;;5068840;28;20027;-79
2023/07/24 02:08:58;;;;;;;9.75;4.88;;;;;;;;;;5086035;28;20027;-78
2023/07/24 02:11:23;;;;;;;7.63;4.55;;;;;;;;;;5085826;28;20052;-79
2023/07/24 02:13:48;;;;;;;6.40;3.80;;;;;;;;;;5086274;28;20024;-80
2023/07/24 02:16:14;;;;;;;10.07;4.55;;;;;;;;;;5085940;28;20031;-78
2023/07/24 02:18:42;;;;;;;7.38;4.28;;;;;;;;;;5086102;28;20081;-79
2023/07/24 02:21:07;;;;;;;8.70;4.55;;;;;;;;;;5067568;28;20039;-79
2023/07/24 02:23:34;;;;;;;7.70;4.53;;;;;;;;;;5086480;28;20028;-79
2023/07/24 02:26:00;;;;;;;7.30;4.40;;;;;;;;;;5067808;28;20376;-77
2023/07/24 02:28:26;;;;;;;11.00;5.20;;;;;;;;;;5085948;28;20020;-78
2023/07/24 02:30:55;;;;;;;9.05;4.95;;;;;;;;;;5085963;28;20483;-78
2023/07/24 02:33:21;;;;;;;7.97;4.38;;;;;;;;;;5085730;28;20452;-78
2023/07/24 02:35:47;;;;;;;6.85;4.18;;;;;;;;;;5085636;28;20020;-78
2023/07/24 02:38:12;;;;;;;7.95;5.00;;;;;;;;;;5067108;28;20078;-78
2023/07/24 02:40:40;;;;;;;9.00;4.45;;;;;;;;;;5067360;28;20020;-80
2023/07/24 02:43:06;;;;;;;9.85;4.85;;;;;;;;;;5067195;28;20054;-77
2023/07/24 02:45:34;;;;;;;8.40;4.32;;;;;;;;;;5085737;28;20099;-78
2023/07/24 02:48:01;;;;;;;12.15;5.65;;;;;;;;;;5080090;28;20021;-77
2023/07/24 02:50:27;;;;;;;7.95;4.75;;;;;;;;;;5047444;28;20411;-78
2023/07/24 02:52:52;;;;;;;6.95;4.63;;;;;;;;;;5068865;28;20050;-78
2023/07/24 02:55:18;;;;;;;14.10;5.00;;;;;;;;;;5066322;28;20326;-79
2023/07/24 02:57:43;;;;;;;7.13;4.50;;;;;;;;;;5066490;28;20139;-78
2023/07/24 03:00:10;;;;;;;8.30;4.55;;;;;;;;;;5085066;28;20381;-78
2023/07/24 03:02:35;;;;;;;8.82;4.82;;;;;;;;;;5067390;28;20119;-77
2023/07/24 03:05:01;;;;;;;8.20;4.32;;;;;;;;;;5076122;28;20389;-77
2023/07/24 03:07:26;;;;;;;8.10;4.90;;;;;;;;;;5053933;28;20028;-77
2023/07/24 03:09:52;;;;;;;8.05;4.72;;;;;;;;;;5072156;28;20028;-78
2023/07/24 03:12:17;;;;;;;9.00;5.18;;;;;;;;;;5071514;28;20376;-77
2023/07/24 03:14:43;;;;;;;9.40;4.28;;;;;;;;;;5071704;28;20040;-78
2023/07/24 03:17:08;;;;;;;8.60;4.20;;;;;;;;;;5071781;28;20074;-78
2023/07/24 03:19:34;;;;;;;9.82;4.90;;;;;;;;;;5053443;28;20060;-78
2023/07/24 03:21:59;;;;;;;8.73;4.80;;;;;;;;;;5053867;28;20523;-79
2023/07/24 03:24:24;;;;;;;6.93;3.90;;;;;;;;;;5071738;28;20031;-78
2023/07/24 03:26:50;;;;;;;8.45;4.50;;;;;;;;;;5053473;28;20472;-79
2023/07/24 03:29:15;;;;;;;9.02;4.47;;;;;;;;;;5071307;28;20153;-79
2023/07/24 03:31:41;;;;;;;9.25;4.55;;;;;;;;;;5071092;28;20158;-79
2023/07/24 03:34:07;;;;;;;9.50;4.78;;;;;;;;;;5053325;28;20036;-79
2023/07/24 03:36:32;;;;;;;9.65;4.75;;;;;;;;;;5071300;28;20476;-79
2023/07/24 03:38:58;;;;;;;7.35;4.22;;;;;;;;;;5053812;28;20032;-76
2023/07/24 03:41:23;;;;;;;9.00;5.00;;;;;;;;;;5070653;28;20115;-80
2023/07/24 03:43:49;;;;;;;9.38;4.57;;;;;;;;;;5052854;28;20020;-79
2023/07/24 03:46:14;;;;;;;9.02;4.65;;;;;;;;;;5052586;28;20154;-78
2023/07/24 03:48:40;;;;;;;11.32;4.63;;;;;;;;;;5071073;28;20024;-78
2023/07/24 03:51:07;;;;;;;17.00;5.07;;;;;;;;;;5052544;28;20028;-78
2023/07/24 03:53:32;;;;;;;10.82;5.38;;;;;;;;;;5071583;28;20113;-78
2023/07/24 03:55:58;;;;;;;9.07;4.28;;;;;;;;;;5054018;28;20532;-77
2023/07/24 03:58:23;;;;;;;9.35;4.72;;;;;;;;;;5052656;28;20328;-79
2023/07/24 04:00:49;;;;;;;9.60;5.07;;;;;;;;;;5052836;28;20039;-79
2023/07/24 04:03:15;;;;;;;8.75;4.43;;;;;;;;;;5070603;28;20020;-78
2023/07/24 04:05:41;;;;;;;11.82;5.00;;;;;;;;;;5052774;28;20128;-78
2023/07/24 04:08:06;;;;;;;9.07;4.72;;;;;;;;;;5051930;28;20296;-78
2023/07/24 04:10:32;;;;;;;9.98;4.90;;;;;;;;;;5052912;28;20024;-79
2023/07/24 04:12:58;;;;;;;11.23;4.88;;;;;;;;;;5070960;28;20050;-80
2023/07/24 04:15:23;;;;;;;10.27;4.38;;;;;;;;;;5052307;28;20341;-77
2023/07/24 04:17:49;;;;;;;10.73;5.80;;;;;;;;;;5070462;28;20032;-78
2023/07/24 04:20:15;;;;;;;12.73;5.72;;;;;;;;;;5070405;28;20373;-78
2023/07/24 04:22:41;;;;;;;9.95;5.30;;;;;;;;;;5070867;28;20024;-78
2023/07/24 04:25:07;;;;;;;7.97;4.97;;;;;;;;;;5052781;28;20024;-78
2023/07/24 04:27:32;;;;;;;16.58;5.55;;;;;;;;;;5070460;28;20032;-78
2023/07/24 04:29:58;;;;;;;9.70;5.10;;;;;;;;;;5052466;28;20028;-80
2023/07/24 04:32:27;;;;;;;8.63;4.97;;;;;;;;;;5070290;28;20022;-78
2023/07/24 04:34:53;;;;;;;12.75;4.95;;;;;;;;;;5052751;28;20035;-80
2023/07/24 04:37:18;;;;;;;14.68;5.43;;;;;;;;;;5051728;28;20029;-77
2023/07/24 04:39:44;;;;;;;13.48;5.57;;;;;;;;;;5051613;28;20039;-79
2023/07/24 04:42:09;;;;;;;19.90;6.88;;;;;;;;;;5051582;28;20020;-78
2023/07/24 04:44:35;;;;;;;11.23;5.50;;;;;;;;;;5052008;28;20514;-78
2023/07/24 04:47:02;;;;;;;26.80;5.95;;;;;;;;;;5070467;28;20090;-79
2023/07/24 04:49:32;;;;;;;13.80;6.05;;;;;;;;;;5069764;28;20020;-79
2023/07/24 04:51:58;;;;;;;11.90;6.03;;;;;;;;;;5052503;28;20024;-78
2023/07/24 04:54:23;;;;;;;10.63;4.70;;;;;;;;;;5052308;28;20082;-79
2023/07/24 04:56:49;;;;;;;11.18;4.97;;;;;;;;;;5069557;28;20043;-78
2023/07/24 04:59:14;;;;;;;9.07;5.57;;;;;;;;;;5069738;28;20498;-78
2023/07/24 05:01:40;;;;;;;9.40;5.20;;;;;;;;;;5069679;28;20497;-80
2023/07/24 05:04:05;;;;;;;11.85;5.25;;;;;;;;;;5051611;28;20035;-78
2023/07/24 05:06:31;;;;;;;13.00;5.78;;;;;;;;;;5076260;28;20012;-77
2023/07/24 05:08:56;;;;;;;13.50;5.53;;;;;;;;;;5043860;28;20353;-78
2023/07/24 05:11:22;;;;;;;27.83;9.23;;;;;;;;;;5065834;28;20055;-78
2023/07/24 05:13:47;;;;;;;13.63;6.35;;;;;;;;;;5081066;28;20024;-81
2023/07/24 05:16:13;;;;;;;13.48;5.53;;;;;;;;;;5060381;28;20032;-80
2023/07/24 05:18:38;;;;;;;20.15;5.97;;;;;;;;;;5067521;28;20385;-80
2023/07/24 05:21:04;;;;;;;17.15;6.78;;;;;;;;;;5076424;28;20116;-78
2023/07/24 05:23:29;;;;;;;15.82;5.88;;;;;;;;;;5087168;28;20031;-79
2023/07/24 05:25:59;;;;;;;15.45;6.10;;;;;;;;;;5092177;28;20016;-79
2023/07/24 05:28:28;;;;;;;12.88;5.65;;;;;;;;;;5090466;28;20069;-79
2023/07/24 05:30:54;;;;;;;11.35;6.05;;;;;;;;;;5090643;28;20125;-80
2023/07/24 05:33:20;;;;;;;15.73;7.22;;;;;;;;;;5080428;28;20488;-79
2023/07/24 05:35:45;;;;;;;14.02;6.90;;;;;;;;;;5071395;28;20028;-77
2023/07/24 05:38:11;;;;;;;12.68;5.57;;;;;;;;;;5065085;28;20063;-78
2023/07/24 05:40:36;;;;;;;18.00;6.25;;;;;;;;;;5055938;28;20029;-79
2023/07/24 05:43:05;;;;;;;11.23;5.15;;;;;;;;;;5072869;28;20437;-78
2023/07/24 05:45:30;;;;;;;9.65;5.15;;;;;;;;;;5056488;28;20031;-77
2023/07/24 05:47:55;;;;;;;14.43;6.18;;;;;;;;;;5047408;28;20143;-77
2023/07/24 05:50:21;;;;;;;16.58;5.68;;;;;;;;;;5055637;28;20033;-79
2023/07/24 05:52:46;;;;;;;9.40;5.05;;;;;;;;;;5067328;28;20500;-76
2023/07/24 05:55:12;;;;;;;14.27;5.40;;;;;;;;;;5051227;28;20420;-79
2023/07/24 05:57:38;;;;;;;12.00;4.93;;;;;;;;;;5069369;28;20425;-78
2023/07/24 06:00:04;;;;;;;18.15;5.95;;;;;;;;;;5047534;28;20711;-78
2023/07/24 06:02:33;;;;;;;16.13;6.10;;;;;;;;;;5060313;28;20024;-80
2023/07/24 06:05:12;;;;;;;13.20;5.13;;;;;;;;;;5053479;28;20135;-82
2023/07/24 06:07:43;;;;;;;9.88;5.35;;;;;;;;;;5086998;28;20017;-81
2023/07/24 06:10:19;;;;;;;;;;;;;;;;;;5054142;28;20028;-80
2023/07/24 06:12:48;;;;;;;10.23;5.07;;;;;;;;;;5083050;28;19920;-77
2023/07/24 06:15:23;;;;;;;9.60;4.25;;;;;;;;;;5067044;28;20044;-84
2023/07/24 06:18:10;;;;;;;9.30;5.00;;;;;;;;;;5064668;28;20021;-80
2023/07/24 06:20:55;;;;;;;;;;;;;;;;;;;;;
2023/07/24 06:26:31;;;;;;;13.88;5.40;;;;;;;;;;5051234;28;20448;-76
2023/07/24 06:29:06;;;;;;;11.43;4.72;;;;;;;;;;5071405;28;20029;-77
2023/07/24 06:31:58;;;;;;;19.00;6.22;;;;;;;;;;5058029;28;20063;-77
2023/07/24 06:34:30;;;;;;;27.20;7.20;;;;;;;;;;5057112;28;20060;-78
2023/07/24 06:36:58;;;;;;;16.77;5.38;;;;;;;;;;5050261;28;20032;-76
2023/07/24 06:39:43;;;;;;;;;;;;;;;;;;;;;
2023/07/24 06:42:21;;;;;;;12.57;5.88;;;;;;;;;;5076893;28;20095;-76
2023/07/24 06:44:56;;;;;;;11.57;5.57;;;;;;;;;;5063074;28;20035;-78
2023/07/24 06:47:28;;;;;;;15.52;5.68;;;;;;;;;;5075233;28;20050;-78
2023/07/24 06:49:57;;;;;;;9.95;4.65;;;;;;;;;;5054881;28;20032;-77
2023/07/24 06:52:24;;;;;;;11.75;5.55;;;;;;;;;;5086690;28;20114;-78
2023/07/24 06:54:54;;;;;;;17.75;7.65;;;;;;;;;;5080067;28;20044;-78
2023/07/24 06:57:20;;;;;;;11.02;5.50;;;;;;;;;;5086554;28;20028;-77
2023/07/24 07:00:26;;;;;;;12.30;6.80;;;;;;;;;;5070918;28;20173;-79
2023/07/24 07:02:52;;;;;;;10.30;5.65;;;;;;;;;;5067599;28;20538;-77
2023/07/24 07:05:22;;;;;;;10.73;5.70;;;;;;;;;;5062346;28;20498;-80
2023/07/24 07:08:02;;;;;;;12.38;5.78;;;;;;;;;;5067468;28;20082;-80
2023/07/24 07:10:56;;;;;;;;;;;;;;;;;;;;;
2023/07/24 07:13:51;;;;;;;11.00;5.57;;;;;;;;;;5070686;28;20032;-84
2023/07/24 07:16:55;;;;;;;13.68;5.68;;;;;;;;;;5070058;28;20039;-86
2023/07/24 07:23:03;;;;;;;12.05;5.75;;;;;;;;;;5011669;28;20025;-80
2023/07/24 07:26:35;;;;;;;;;;;;;;;;;;;;;
2023/07/24 07:29:31;;;;;;;14.30;6.10;;;;;;;;;;4927931;29;20120;-83
2023/07/24 07:36:25;;;;;;;;;;;;;;;;;;;;;
2023/07/24 07:39:45;;;;;;;11.25;6.25;;;;;;;;;;4921273;29;20099;-87
2023/07/24 07:46:11;;;;;;;11.45;6.15;;;;;;;;;;4843984;29;20041;-80
2023/07/24 07:48:40;;;;;;;;;;;;;;;;;;4886066;29;20040;-80
2023/07/24 07:51:24;;;;;;;10.57;6.03;;;;;;;;;;4959759;28;19940;-81
2023/07/24 07:57:24;;;;;;;;;;;;;;;;;;;;;
2023/07/24 08:00:18;;;;;;;9.85;5.75;;;;;;;;;;4972962;28;20146;-81
2023/07/24 08:03:22;;;;;;;;;;;;;;;;;;;;;
2023/07/24 08:07:02;;;;;;;;;;;;;;;;;;;;;
2023/07/24 08:09:56;;;;;;;;;;;;;;;;;;;;;
2023/07/24 08:12:35;;;;;;;11.13;5.78;;;;;;;;;;5071226;28;21062;-79
2023/07/24 08:16:13;;;;;;;;;;;;;;;;;;;;;
2023/07/24 08:18:33;;;;;;;12.90;6.45;;;;;;;;;;5067502;28;20054;-81
2023/07/24 08:21:32;;;;;;;15.95;6.97;;;;;;;;;;5030583;28;20033;-80
2023/07/24 08:24:01;;;;;;;13.02;6.03;;;;;;;;;;4960417;28;20039;-81
2023/07/24 08:30:15;;;;;;;13.60;5.82;;;;;;;;;;5017009;28;20103;-79
2023/07/24 08:33:02;;;;;;;;;;;;;;;;;;;;;
2023/07/24 08:43:01;;;;;;;;;;;;;;;;;;;;;
2023/07/24 08:46:14;;;;;;;;;;;;;;;;;;;;;
2023/07/24 08:49:56;;;;;;;;;;;;;;;;;;;;;
2023/07/24 08:52:53;;;;;;;;;;;;;;;;;;4895986;29;20187;-80
2023/07/24 08:59:49;;;;;;;;;;;;;;;;;;;;;
2023/07/24 09:02:26;;;;;;;10.07;5.57;;;;;;;;;;4842190;29;20046;-77
2023/07/24 09:06:11;;;;;;;;;;;;;;;;;;;;;
2023/07/24 09:25:33;;;;;;;9.70;5.90;;;;;;;;;;4978264;23;20528;-75
2023/07/24 09:27:59;;;;;;;12.18;6.60;;;;;;;;;;5058799;28;20028;-76
2023/07/24 09:30:25;;;;;;;9.85;6.00;;;;;;;;;;5055835;28;20469;-75
2023/07/24 09:32:54;;;;;;;13.93;6.07;;;;;;;;;;5058659;28;20025;-75
2023/07/24 09:35:22;;;;;;;11.32;6.10;;;;;;;;;;5059738;28;20032;-76
2023/07/24 09:37:47;;;;;;;11.43;6.90;;;;;;;;;;5052560;28;20020;-76
2023/07/24 09:40:15;;;;;;;11.57;6.63;;;;;;;;;;5053786;28;20759;-77
2023/07/24 09:42:43;;;;;;;12.60;6.95;;;;;;;;;;5057314;28;20129;-78
2023/07/24 09:45:09;;;;;;;11.88;6.28;;;;;;;;;;5060524;28;20016;-74
2023/07/24 09:47:35;;;;;;;13.80;6.88;;;;;;;;;;5063068;28;20028;-76
2023/07/24 09:50:04;;;;;;;10.93;5.90;;;;;;;;;;5036182;28;20594;-77
2023/07/24 09:52:30;;;;;;;18.05;6.88;;;;;;;;;;5049718;28;20056;-74
2023/07/24 09:55:11;;;;;;;11.02;6.50;;;;;;;;;;5055657;28;20135;-77
2023/07/24 09:57:37;;;;;;;10.55;6.28;;;;;;;;;;5049056;28;20025;-77
2023/07/24 10:00:22;;;;;;;11.55;6.53;;;;;;;;;;5053103;28;20392;-74
2023/07/24 10:02:48;;;;;;;12.07;6.97;;;;;;;;;;5058980;28;20645;-75
2023/07/24 10:05:15;;;;;;;12.95;6.65;;;;;;;;;;5041543;28;20028;-75
2023/07/24 10:07:41;;;;;;;10.20;5.85;;;;;;;;;;5065066;28;20078;-76
2023/07/24 10:10:07;;;;;;;9.98;6.15;;;;;;;;;;5061111;28;20046;-75
2023/07/24 10:12:34;;;;;;;10.05;6.53;;;;;;;;;;5075098;28;20025;-75
2023/07/24 10:15:01;;;;;;;12.45;6.00;;;;;;;;;;5068590;28;20097;-75
2023/07/24 10:17:40;;;;;;;16.90;7.38;;;;;;;;;;5066091;28;20033;-76
2023/07/24 10:20:11;;;;;;;12.88;6.70;;;;;;;;;;5062624;28;20024;-75
2023/07/24 10:22:41;;;;;;;12.80;6.82;;;;;;;;;;5031122;28;20120;-76
2023/07/24 10:25:08;;;;;;;13.70;6.47;;;;;;;;;;5069951;28;20137;-77
2023/07/24 10:27:45;;;;;;;11.73;5.82;;;;;;;;;;5051455;28;20043;-76
2023/07/24 10:30:12;;;;;;;12.77;6.25;;;;;;;;;;5084352;28;20027;-76
2023/07/24 10:32:49;;;;;;;8.35;5.75;;;;;;;;;;5059196;28;20035;-76
2023/07/24 10:35:15;;;;;;;10.30;6.30;;;;;;;;;;5060880;28;20442;-74
2023/07/24 10:37:40;;;;;;;12.63;6.60;;;;;;;;;;5081113;28;20036;-75
2023/07/24 10:40:06;;;;;;;12.35;6.70;;;;;;;;;;5081709;28;20066;-76
2023/07/24 10:42:33;;;;;;;11.15;6.00;;;;;;;;;;5064369;28;20036;-76
2023/07/24 10:45:06;;;;;;;10.95;5.95;;;;;;;;;;5083112;28;20024;-76
2023/07/24 10:47:33;;;;;;;9.43;6.00;;;;;;;;;;5082799;28;20765;-76
2023/07/24 10:50:01;;;;;;;12.00;6.07;;;;;;;;;;5062441;28;20058;-75
2023/07/24 10:52:32;;;;;;;11.30;6.25;;;;;;;;;;5079360;28;20329;-77
2023/07/24 10:55:04;;;;;;;9.63;6.45;;;;;;;;;;5058745;28;20032;-77
2023/07/24 10:57:44;;;;;;;10.68;6.10;;;;;;;;;;5081606;28;20162;-76
2023/07/24 11:00:11;;;;;;;10.45;6.40;;;;;;;;;;5081008;28;20062;-75
2023/07/24 11:02:40;;;;;;;14.60;6.13;;;;;;;;;;5078060;28;20184;-77
2023/07/24 11:05:09;;;;;;;11.85;6.80;;;;;;;;;;5082828;28;20024;-74
2023/07/24 11:07:35;;;;;;;13.57;6.32;;;;;;;;;;5065523;28;20118;-75
2023/07/24 11:10:00;;;;;;;13.85;5.95;;;;;;;;;;5060689;28;20028;-76
2023/07/24 11:12:31;;;;;;;9.55;6.18;;;;;;;;;;5061572;28;20036;-75
2023/07/24 11:14:58;;;;;;;11.90;6.25;;;;;;;;;;5053441;28;20477;-77
2023/07/24 11:17:35;;;;;;;14.07;6.15;;;;;;;;;;5082930;28;20823;-78
2023/07/24 11:20:12;;;;;;;9.75;6.00;;;;;;;;;;5077242;28;20032;-77
2023/07/24 11:22:46;;;;;;;10.23;5.60;;;;;;;;;;5057955;28;20054;-75
2023/07/24 11:25:12;;;;;;;12.40;6.22;;;;;;;;;;5079969;28;20085;-77
2023/07/24 11:27:43;;;;;;;10.52;5.95;;;;;;;;;;5046659;28;20036;-78
2023/07/24 11:30:13;;;;;;;10.52;6.07;;;;;;;;;;5062805;28;20024;-76
2023/07/24 11:32:40;;;;;;;12.35;6.15;;;;;;;;;;5045647;28;20163;-77
2023/07/24 11:35:07;;;;;;;10.18;6.20;;;;;;;;;;5080358;28;20040;-75
2023/07/24 11:37:34;;;;;;;10.90;5.60;;;;;;;;;;5083563;28;20024;-75
2023/07/24 11:40:10;;;;;;;11.68;6.32;;;;;;;;;;5070784;28;20028;-77
2023/07/24 11:42:40;;;;;;;15.70;6.28;;;;;;;;;;5062321;28;20035;-76
2023/07/24 11:45:09;;;;;;;9.15;5.60;;;;;;;;;;5084640;28;20025;-75
2023/07/24 11:48:04;;;;;;;12.65;6.43;;;;;;;;;;5061404;28;20102;-77
2023/07/24 11:50:30;;;;;;;9.85;5.72;;;;;;;;;;5082753;28;20036;-76
2023/07/24 11:52:55;;;;;;;13.43;7.30;;;;;;;;;;5057239;28;20401;-74
2023/07/24 11:55:32;;;;;;;11.60;6.38;;;;;;;;;;5057405;28;20032;-75
2023/07/24 11:57:59;;;;;;;14.23;7.13;;;;;;;;;;5076300;28;20064;-76
2023/07/24 12:00:26;;;;;;;12.00;7.18;;;;;;;;;;5059196;28;20047;-76
2023/07/24 12:02:52;;;;;;;12.73;7.20;;;;;;;;;;5062064;28;20491;-76
2023/07/24 12:05:18;;;;;;;12.82;6.70;;;;;;;;;;5080269;28;20415;-79
2023/07/24 12:07:47;;;;;;;15.30;7.15;;;;;;;;;;5080945;28;20024;-76
2023/07/24 12:10:14;;;;;;;12.73;6.88;;;;;;;;;;5082772;28;20020;-76
2023/07/24 12:12:44;;;;;;;11.98;7.40;;;;;;;;;;5080324;28;20119;-77
2023/07/24 12:15:10;;;;;;;12.20;6.68;;;;;;;;;;5064172;28;20531;-75
2023/07/24 12:17:36;;;;;;;15.48;7.38;;;;;;;;;;5060658;28;20476;-77
2023/07/24 12:20:04;;;;;;;15.48;7.03;;;;;;;;;;5081498;28;20028;-76
2023/07/24 12:22:30;;;;;;;11.38;7.43;;;;;;;;;;5080956;28;20036;-76
2023/07/24 12:24:56;;;;;;;16.73;6.65;;;;;;;;;;5054558;28;20082;-76
2023/07/24 12:27:21;;;;;;;16.00;6.78;;;;;;;;;;5077728;28;20028;-76
2023/07/24 12:29:47;;;;;;;12.60;7.93;;;;;;;;;;5076733;28;20059;-76
2023/07/24 12:32:13;;;;;;;13.07;6.68;;;;;;;;;;5053729;28;20463;-77
2023/07/24 12:34:39;;;;;;;11.02;7.30;;;;;;;;;;5069679;28;20111;-77
2023/07/24 12:37:05;;;;;;;13.90;7.10;;;;;;;;;;5076452;28;20035;-77
2023/07/24 12:39:31;;;;;;;16.15;7.55;;;;;;;;;;5080683;28;20024;-76
2023/07/24 12:41:57;;;;;;;11.13;6.70;;;;;;;;;;5061970;28;20024;-77
2023/07/24 12:44:25;;;;;;;20.25;8.38;;;;;;;;;;5081820;28;20056;-77
2023/07/24 12:46:51;;;;;;;12.07;7.05;;;;;;;;;;5076473;28;20065;-76
2023/07/24 12:49:17;;;;;;;13.25;7.35;;;;;;;;;;5077331;28;20031;-77
2023/07/24 12:51:42;;;;;;;11.55;7.50;;;;;;;;;;5080420;28;20032;-75
2023/07/24 12:54:09;;;;;;;14.98;6.30;;;;;;;;;;5056021;28;20075;-77
2023/07/24 12:56:35;;;;;;;14.15;7.95;;;;;;;;;;5066053;28;20036;-77
2023/07/24 12:59:02;;;;;;;12.52;7.30;;;;;;;;;;5067089;28;20082;-77
2023/07/24 13:01:28;;;;;;;14.95;8.57;;;;;;;;;;5079422;28;20364;-76
2023/07/24 13:03:55;;;;;;;12.73;7.18;;;;;;;;;;5053365;28;20339;-76
2023/07/24 13:06:22;;;;;;;14.57;7.22;;;;;;;;;;5059769;28;20031;-75
2023/07/24 13:08:49;;;;;;;11.90;7.13;;;;;;;;;;5080101;28;20082;-76
2023/07/24 13:11:14;;;;;;;12.15;7.18;;;;;;;;;;5028404;28;20147;-77
2023/07/24 13:13:41;;;;;;;12.57;7.30;;;;;;;;;;5074133;28;20424;-76
2023/07/24 13:16:07;;;;;;;12.85;7.45;;;;;;;;;;5056294;28;20040;-76
2023/07/24 13:18:33;;;;;;;12.50;7.15;;;;;;;;;;5065303;28;20107;-76
2023/07/24 13:20:59;;;;;;;13.80;7.70;;;;;;;;;;5061558;28;20087;-76
2023/07/24 13:23:25;;;;;;;18.15;7.80;;;;;;;;;;5056359;28;20033;-74
2023/07/24 13:25:53;;;;;;;13.40;7.22;;;;;;;;;;5056405;28;20068;-76
2023/07/24 13:28:19;;;;;;;10.40;6.13;;;;;;;;;;5056704;28;20032;-75
2023/07/24 13:30:47;;;;;;;11.98;6.88;;;;;;;;;;5055264;28;20361;-76
2023/07/24 13:33:13;;;;;;;13.35;7.72;;;;;;;;;;5051007;28;20043;-76
2023/07/24 13:35:39;;;;;;;12.50;7.75;;;;;;;;;;5054265;28;20496;-76
2023/07/24 13:38:07;;;;;;;11.80;6.85;;;;;;;;;;5052308;28;20539;-76
2023/07/24 13:40:36;;;;;;;13.45;7.00;;;;;;;;;;5049059;28;20735;-76
2023/07/24 13:43:05;;;;;;;9.82;6.53;;;;;;;;;;5055763;28;20055;-76
2023/07/24 13:45:30;;;;;;;14.23;6.60;;;;;;;;;;5047290;28;20127;-76
2023/07/24 13:47:58;;;;;;;13.20;7.07;;;;;;;;;;5059397;28;20039;-77
2023/07/24 13:50:24;;;;;;;13.90;6.28;;;;;;;;;;5056263;28;20028;-74
2023/07/24 13:52:50;;;;;;;12.65;6.40;;;;;;;;;;5052795;28;20043;-76
2023/07/24 13:55:15;;;;;;;8.68;5.47;;;;;;;;;;5049501;28;20032;-76
2023/07/24 13:57:41;;;;;;;10.15;6.10;;;;;;;;;;5054579;28;20022;-76
2023/07/24 14:00:07;;;;;;;8.88;5.80;;;;;;;;;;5053881;28;20055;-76
2023/07/24 14:02:33;;;;;;;10.80;5.43;;;;;;;;;;5052586;28;20063;-75
2023/07/24 14:04:59;;;;;;;9.18;5.65;;;;;;;;;;5058058;28;20075;-74
2023/07/24 14:07:25;;;;;;;12.90;6.60;;;;;;;;;;5052894;28;20032;-73
2023/07/24 14:09:51;;;;;;;10.27;6.00;;;;;;;;;;5064009;28;20567;-74
2023/07/24 14:12:17;;;;;;;15.68;7.00;;;;;;;;;;5061651;28;20032;-74
2023/07/24 14:14:43;;;;;;;10.20;6.35;;;;;;;;;;5059023;28;20038;-79
2023/07/24 14:17:09;;;;;;;13.00;5.90;;;;;;;;;;5059059;28;20477;-78
2023/07/24 14:19:35;;;;;;;11.00;5.93;;;;;;;;;;5058310;28;20063;-77
2023/07/24 14:22:01;;;;;;;8.38;6.00;;;;;;;;;;5060703;28;20108;-76
2023/07/24 14:24:27;;;;;;;10.65;6.03;;;;;;;;;;5061986;28;20031;-76
2023/07/24 14:26:53;;;;;;;12.13;5.90;;;;;;;;;;5061220;28;20032;-77
2023/07/24 14:29:19;;;;;;;9.25;5.45;;;;;;;;;;5084049;28;20438;-76
2023/07/24 14:31:45;;;;;;;8.05;5.32;;;;;;;;;;5065245;28;20729;-77
2023/07/24 14:34:12;;;;;;;14.55;6.32;;;;;;;;;;5065832;28;20056;-77
2023/07/24 14:36:39;;;;;;;11.02;5.93;;;;;;;;;;5063550;28;20147;-76
2023/07/24 14:39:05;;;;;;;9.35;6.05;;;;;;;;;;5085999;28;20199;-78
2023/07/24 14:41:52;;;;;;;9.43;6.07;;;;;;;;;;5058485;28;20476;-78
2023/07/24 14:44:18;;;;;;;11.70;5.60;;;;;;;;;;5073401;28;20059;-77
2023/07/24 14:46:43;;;;;;;16.45;6.55;;;;;;;;;;5063518;28;20063;-76
2023/07/24 14:49:13;;;;;;;12.18;5.75;;;;;;;;;;5065230;28;20111;-77
2023/07/24 14:51:40;;;;;;;9.05;6.40;;;;;;;;;;5066735;28;20107;-76
2023/07/24 14:54:06;;;;;;;9.73;5.60;;;;;;;;;;5069323;28;20443;-77
2023/07/24 14:56:32;;;;;;;11.25;6.10;;;;;;;;;;5067268;28;20059;-77
2023/07/24 14:58:58;;;;;;;12.02;5.82;;;;;;;;;;5066349;28;20047;-77
2023/07/24 15:01:32;;;;;;;11.07;5.70;;;;;;;;;;5065644;28;20135;-79
2023/07/24 15:03:57;;;;;;;8.25;5.40;;;;;;;;;;5059211;28;20659;-78
2023/07/24 15:06:23;;;;;;;16.08;6.45;;;;;;;;;;5070616;28;20072;-77
2023/07/24 15:08:53;;;;;;;10.15;6.13;;;;;;;;;;5073942;28;20415;-78
2023/07/24 15:11:19;;;;;;;10.13;5.50;;;;;;;;;;5092312;28;20031;-78
2023/07/24 15:13:45;;;;;;;8.30;4.45;;;;;;;;;;5054781;28;20024;-78
2023/07/24 15:16:10;;;;;;;8.90;4.82;;;;;;;;;;5072615;28;20317;-78
2023/07/24 15:18:36;;;;;;;7.88;4.22;;;;;;;;;;5020202;28;20049;-79
2023/07/24 15:21:02;;;;;;;6.88;3.83;;;;;;;;;;5028863;28;20056;-78
2023/07/24 15:23:27;;;;;;;10.77;4.35;;;;;;;;;;5030606;28;20065;-76
2023/07/24 15:26:02;;;;;;;9.43;5.18;;;;;;;;;;5029257;28;20052;-78
2023/07/24 15:28:29;;;;;;;6.43;3.83;;;;;;;;;;5032047;28;20508;-77
2023/07/24 15:30:54;;;;;;;14.32;5.03;;;;;;;;;;5021827;28;20026;-76
2023/07/24 15:33:20;;;;;;;9.38;4.35;;;;;;;;;;5013644;28;20033;-77
2023/07/24 15:36:47;;;;;;;8.13;4.70;;;;;;;;;;5027805;28;20044;-78
2023/07/24 15:39:13;;;;;;;7.55;4.05;;;;;;;;;;5009414;28;20100;-78
2023/07/24 15:41:39;;;;;;;12.35;5.00;;;;;;;;;;5010269;28;20044;-76
2023/07/24 15:44:04;;;;;;;7.65;3.75;;;;;;;;;;5010627;28;20026;-76
2023/07/24 15:46:31;;;;;;;7.47;3.97;;;;;;;;;;5011622;28;20168;-76
2023/07/24 15:48:57;;;;;;;9.10;4.47;;;;;;;;;;5022434;28;20100;-77
2023/07/24 15:51:25;;;;;;;7.53;4.13;;;;;;;;;;5014989;28;20032;-79
2023/07/24 15:53:53;;;;;;;8.93;4.60;;;;;;;;;;5028846;28;20389;-78
2023/07/24 15:56:19;;;;;;;8.13;4.45;;;;;;;;;;5030011;28;20116;-78
2023/07/24 15:58:48;;;;;;;8.23;4.28;;;;;;;;;;5029350;28;20033;-77